sensor_id;sensor_type;location;lat;lon;timestamp;pressure;altitude;pressure_sealevel;temperature;humidity
5296;BME280;2670;42.720;23.336;2023-02-21T00:00:14;-22575.84;;;4.61;82.96
5296;BME280;2670;42.720;23.336;2023-02-21T00:02:58;-22572.41;;;4.49;84.24
5296;BME280;2670;42.720;23.336;2023-02-21T00:05:42;-22572.13;;;4.48;84.52
5296;BME280;2670;42.720;23.336;2023-02-21T00:08:26;-22574.81;;;4.57;83.82
5296;BME280;2670;42.720;23.336;2023-02-21T00:11:09;-22574.66;;;4.57;83.79
5296;BME280;2670;42.720;23.336;2023-02-21T00:13:53;-22572.84;;;4.50;84.06
5296;BME280;2670;42.720;23.336;2023-02-21T00:16:39;-22571.81;;;4.47;83.54
5296;BME280;2670;42.720;23.336;2023-02-21T00:19:23;-22571.06;;;4.44;83.48
5296;BME280;2670;42.720;23.336;2023-02-21T00:22:07;-22568.69;;;4.36;84.57
5296;BME280;2670;42.720;23.336;2023-02-21T00:24:51;-22571.97;;;4.47;83.97
5296;BME280;2670;42.720;23.336;2023-02-21T00:27:35;-22570.19;;;4.41;84.24
5296;BME280;2670;42.720;23.336;2023-02-21T00:30:19;-22570.31;;;4.42;84.08
5296;BME280;2670;42.720;23.336;2023-02-21T00:33:05;-22567.94;;;4.34;84.71
5296;BME280;2670;42.720;23.336;2023-02-21T00:35:49;-22568.69;;;4.36;85.03
5296;BME280;2670;42.720;23.336;2023-02-21T00:38:35;-22569.88;;;4.40;84.72
5296;BME280;2670;42.720;23.336;2023-02-21T00:41:20;-22567.19;;;4.31;84.94
5296;BME280;2670;42.720;23.336;2023-02-21T00:44:04;-22566.44;;;4.29;85.02
5296;BME280;2670;42.720;23.336;2023-02-21T00:46:48;-22566.75;;;4.30;85.42
5296;BME280;2670;42.720;23.336;2023-02-21T00:49:33;-22566.00;;;4.27;85.31
5296;BME280;2670;42.720;23.336;2023-02-21T00:52:17;-22566.75;;;4.30;85.44
5296;BME280;2670;42.720;23.336;2023-02-21T00:55:01;-22566.44;;;4.29;85.20
5296;BME280;2670;42.720;23.336;2023-02-21T00:57:45;-22566.59;;;4.29;84.98
5296;BME280;2670;42.720;23.336;2023-02-21T01:00:29;-22563.75;;;4.19;85.36
5296;BME280;2670;42.720;23.336;2023-02-21T01:03:13;-22570.47;;;4.42;83.67
5296;BME280;2670;42.720;23.336;2023-02-21T01:05:59;-22566.75;;;4.30;84.35
5296;BME280;2670;42.720;23.336;2023-02-21T01:08:44;-22567.63;;;4.33;84.31
5296;BME280;2670;42.720;23.336;2023-02-21T01:11:29;-22567.34;;;4.32;84.80
5296;BME280;2670;42.720;23.336;2023-02-21T01:14:13;-22567.78;;;4.33;84.92
5296;BME280;2670;42.720;23.336;2023-02-21T01:16:58;-22570.94;;;4.44;84.06
5296;BME280;2670;42.720;23.336;2023-02-21T01:19:42;-22567.63;;;4.33;84.48
5296;BME280;2670;42.720;23.336;2023-02-21T01:22:28;-22567.50;;;4.32;85.03
5296;BME280;2670;42.720;23.336;2023-02-21T01:25:12;-22571.22;;;4.45;84.04
5296;BME280;2670;42.720;23.336;2023-02-21T01:27:57;-22571.53;;;4.46;84.04
5296;BME280;2670;42.720;23.336;2023-02-21T01:30:41;-22566.00;;;4.27;84.81
5296;BME280;2670;42.720;23.336;2023-02-21T01:33:25;-22561.53;;;4.12;86.00
5296;BME280;2670;42.720;23.336;2023-02-21T01:36:09;-22561.53;;;4.12;86.27
5296;BME280;2670;42.720;23.336;2023-02-21T01:38:54;-22562.41;;;4.15;86.82
5296;BME280;2670;42.720;23.336;2023-02-21T01:41:39;-22559.75;;;4.06;87.29
5296;BME280;2670;42.720;23.336;2023-02-21T01:44:33;-22562.28;;;4.14;87.35
5296;BME280;2670;42.720;23.336;2023-02-21T01:47:18;-22560.34;;;4.08;87.33
5296;BME280;2670;42.720;23.336;2023-02-21T01:50:07;-22558.25;;;4.00;88.47
5296;BME280;2670;42.720;23.336;2023-02-21T01:52:52;-22561.69;;;4.12;87.74
5296;BME280;2670;42.720;23.336;2023-02-21T01:55:39;-22556.91;;;3.96;88.87
5296;BME280;2670;42.720;23.336;2023-02-21T01:58:25;-22555.84;;;3.92;89.70
5296;BME280;2670;42.720;23.336;2023-02-21T02:01:20;-22555.41;;;3.91;90.22
5296;BME280;2670;42.720;23.336;2023-02-21T02:04:06;-22557.06;;;3.96;89.48
5296;BME280;2670;42.720;23.336;2023-02-21T02:06:51;-22556.31;;;3.94;90.40
5296;BME280;2670;42.720;23.336;2023-02-21T02:09:35;-22555.84;;;3.92;90.64
5296;BME280;2670;42.720;23.336;2023-02-21T02:12:35;-22560.34;;;4.08;89.78
5296;BME280;2670;42.720;23.336;2023-02-21T02:18:17;-22557.78;;;3.99;90.01
5296;BME280;2670;42.720;23.336;2023-02-21T02:24:24;-22554.81;;;3.89;91.47
5296;BME280;2670;42.720;23.336;2023-02-21T02:36:13;-22554.66;;;3.88;91.60
5296;BME280;2670;42.720;23.336;2023-02-21T02:38:49;-22551.09;;;3.76;92.71
5296;BME280;2670;42.720;23.336;2023-02-21T02:41:25;-22551.81;;;3.79;92.83
5296;BME280;2670;42.720;23.336;2023-02-21T02:43:54;-22550.03;;;3.72;92.90
5296;BME280;2670;42.720;23.336;2023-02-21T02:46:27;-22549.44;;;3.70;92.72
5296;BME280;2670;42.720;23.336;2023-02-21T02:48:59;-22550.94;;;3.75;92.74
5296;BME280;2670;42.720;23.336;2023-02-21T02:51:31;-22551.22;;;3.77;92.56
5296;BME280;2670;42.720;23.336;2023-02-21T02:53:59;-22551.09;;;3.76;91.93
5296;BME280;2670;42.720;23.336;2023-02-21T02:56:26;-22549.00;;;3.69;92.69
5296;BME280;2670;42.720;23.336;2023-02-21T02:58:55;-22552.56;;;3.81;91.63
5296;BME280;2670;42.720;23.336;2023-02-21T03:01:43;-22551.69;;;3.78;91.67
5296;BME280;2670;42.720;23.336;2023-02-21T03:04:34;-22549.00;;;3.69;92.34
5296;BME280;2670;42.720;23.336;2023-02-21T03:07:14;-22549.44;;;3.70;92.62
5296;BME280;2670;42.720;23.336;2023-02-21T03:09:50;-22550.47;;;3.74;91.71
5296;BME280;2670;42.720;23.336;2023-02-21T03:12:31;-22548.69;;;3.68;92.53
5296;BME280;2670;42.720;23.336;2023-02-21T03:15:04;-22545.72;;;3.58;93.54
5296;BME280;2670;42.720;23.336;2023-02-21T03:17:38;-22546.59;;;3.61;92.59
5296;BME280;2670;42.720;23.336;2023-02-21T03:20:08;-22545.84;;;3.58;92.95
5296;BME280;2670;42.720;23.336;2023-02-21T03:22:37;-22546.31;;;3.60;92.85
5296;BME280;2670;42.720;23.336;2023-02-21T03:25:05;-22548.69;;;3.68;92.91
5296;BME280;2670;42.720;23.336;2023-02-21T03:27:32;-22546.31;;;3.60;92.64
5296;BME280;2670;42.720;23.336;2023-02-21T03:30:03;-22544.38;;;3.53;93.05
5296;BME280;2670;42.720;23.336;2023-02-21T03:32:35;-22547.19;;;3.63;93.00
5296;BME280;2670;42.720;23.336;2023-02-21T03:35:04;-22543.75;;;3.51;93.49
5296;BME280;2670;42.720;23.336;2023-02-21T03:37:33;-22546.47;;;3.60;93.31
5296;BME280;2670;42.720;23.336;2023-02-21T03:40:03;-22543.75;;;3.51;93.90
5296;BME280;2670;42.720;23.336;2023-02-21T03:42:30;-22541.38;;;3.43;94.46
5296;BME280;2670;42.720;23.336;2023-02-21T03:44:57;-22540.78;;;3.41;94.68
5296;BME280;2670;42.720;23.336;2023-02-21T03:47:23;-22541.38;;;3.43;94.13
5296;BME280;2670;42.720;23.336;2023-02-21T03:49:50;-22539.59;;;3.37;94.92
5296;BME280;2670;42.720;23.336;2023-02-21T03:52:17;-22539.28;;;3.36;94.56
5296;BME280;2670;42.720;23.336;2023-02-21T03:54:44;-22538.84;;;3.34;94.98
5296;BME280;2670;42.720;23.336;2023-02-21T03:57:12;-22542.44;;;3.46;94.42
5296;BME280;2670;42.720;23.336;2023-02-21T03:59:38;-22540.50;;;3.40;93.79
5296;BME280;2670;42.720;23.336;2023-02-21T04:02:05;-22538.69;;;3.34;94.20
5296;BME280;2670;42.720;23.336;2023-02-21T04:04:33;-22538.84;;;3.34;94.44
5296;BME280;2670;42.720;23.336;2023-02-21T04:06:59;-22538.53;;;3.33;94.06
5296;BME280;2670;42.720;23.336;2023-02-21T04:09:26;-22538.53;;;3.33;94.08
5296;BME280;2670;42.720;23.336;2023-02-21T04:11:53;-22540.63;;;3.40;93.43
5296;BME280;2670;42.720;23.336;2023-02-21T04:14:21;-22542.28;;;3.46;93.29
5296;BME280;2670;42.720;23.336;2023-02-21T04:16:48;-22545.25;;;3.56;92.55
5296;BME280;2670;42.720;23.336;2023-02-21T04:19:14;-22542.28;;;3.46;93.00
5296;BME280;2670;42.720;23.336;2023-02-21T04:21:41;-22541.97;;;3.45;92.76
5296;BME280;2670;42.720;23.336;2023-02-21T04:24:08;-22544.66;;;3.54;92.29
5296;BME280;2670;42.720;23.336;2023-02-21T04:26:34;-22547.06;;;3.62;91.99
5296;BME280;2670;42.720;23.336;2023-02-21T04:29:01;-22544.66;;;3.54;91.56
5296;BME280;2670;42.720;23.336;2023-02-21T04:31:30;-22545.25;;;3.56;91.56
5296;BME280;2670;42.720;23.336;2023-02-21T04:33:57;-22544.81;;;3.55;91.07
5296;BME280;2670;42.720;23.336;2023-02-21T04:36:24;-22541.09;;;3.42;91.95
5296;BME280;2670;42.720;23.336;2023-02-21T04:38:51;-22544.50;;;3.54;91.63
5296;BME280;2670;42.720;23.336;2023-02-21T04:41:18;-22544.81;;;3.55;91.72
5296;BME280;2670;42.720;23.336;2023-02-21T04:43:45;-22544.97;;;3.55;91.22
5296;BME280;2670;42.720;23.336;2023-02-21T04:46:13;-22542.56;;;3.47;91.76
5296;BME280;2670;42.720;23.336;2023-02-21T04:48:42;-22545.72;;;3.58;90.65
5296;BME280;2670;42.720;23.336;2023-02-21T04:51:09;-22541.53;;;3.43;92.07
5296;BME280;2670;42.720;23.336;2023-02-21T04:53:35;-22539.00;;;3.35;91.94
5296;BME280;2670;42.720;23.336;2023-02-21T04:56:03;-22542.56;;;3.47;91.20
5296;BME280;2670;42.720;23.336;2023-02-21T04:58:29;-22538.41;;;3.33;91.79
5296;BME280;2670;42.720;23.336;2023-02-21T05:00:56;-22537.34;;;3.29;91.95
5296;BME280;2670;42.720;23.336;2023-02-21T05:03:23;-22535.41;;;3.22;92.81
5296;BME280;2670;42.720;23.336;2023-02-21T05:05:51;-22533.16;;;3.15;93.23
5296;BME280;2670;42.720;23.336;2023-02-21T05:08:17;-22536.59;;;3.27;92.88
5296;BME280;2670;42.720;23.336;2023-02-21T05:10:44;-22532.41;;;3.12;92.13
5296;BME280;2670;42.720;23.336;2023-02-21T05:13:12;-22529.44;;;3.02;93.14
5296;BME280;2670;42.720;23.336;2023-02-21T05:15:38;-22530.47;;;3.06;92.95
5296;BME280;2670;42.720;23.336;2023-02-21T05:18:05;-22528.53;;;2.99;93.90
5296;BME280;2670;42.720;23.336;2023-02-21T05:20:32;-22526.16;;;2.91;94.43
5296;BME280;2670;42.720;23.336;2023-02-21T05:23:00;-22527.06;;;2.94;94.31
5296;BME280;2670;42.720;23.336;2023-02-21T05:25:27;-22524.81;;;2.86;95.22
5296;BME280;2670;42.720;23.336;2023-02-21T05:27:53;-22523.16;;;2.81;95.32
5296;BME280;2670;42.720;23.336;2023-02-21T05:30:21;-22523.47;;;2.82;94.50
5296;BME280;2670;42.720;23.336;2023-02-21T05:32:49;-22522.88;;;2.80;94.81
5296;BME280;2670;42.720;23.336;2023-02-21T05:35:16;-22521.81;;;2.76;95.62
5296;BME280;2670;42.720;23.336;2023-02-21T05:37:44;-22522.41;;;2.78;95.74
5296;BME280;2670;42.720;23.336;2023-02-21T05:40:12;-22520.94;;;2.73;96.54
5296;BME280;2670;42.720;23.336;2023-02-21T05:42:39;-22520.47;;;2.71;97.29
5296;BME280;2670;42.720;23.336;2023-02-21T05:45:08;-22521.22;;;2.74;96.70
5296;BME280;2670;42.720;23.336;2023-02-21T05:47:35;-22520.47;;;2.71;97.15
5296;BME280;2670;42.720;23.336;2023-02-21T05:50:05;-22520.19;;;2.70;97.85
5296;BME280;2670;42.720;23.336;2023-02-21T05:52:32;-22521.06;;;2.73;97.77
5296;BME280;2670;42.720;23.336;2023-02-21T05:54:58;-22522.88;;;2.80;96.55
5296;BME280;2670;42.720;23.336;2023-02-21T05:57:26;-22527.06;;;2.94;96.51
5296;BME280;2670;42.720;23.336;2023-02-21T05:59:53;-22528.84;;;3.00;95.85
5296;BME280;2670;42.720;23.336;2023-02-21T06:02:20;-22535.09;;;3.21;94.51
5296;BME280;2670;42.720;23.336;2023-02-21T06:04:46;-22540.34;;;3.39;94.16
5296;BME280;2670;42.720;23.336;2023-02-21T06:07:13;-22549.28;;;3.70;91.24
5296;BME280;2670;42.720;23.336;2023-02-21T06:09:40;-22554.81;;;3.89;89.77
5296;BME280;2670;42.720;23.336;2023-02-21T06:12:06;-22556.91;;;3.96;89.07
5296;BME280;2670;42.720;23.336;2023-02-21T06:14:34;-22557.50;;;3.98;89.00
5296;BME280;2670;42.720;23.336;2023-02-21T06:17:01;-22560.63;;;4.09;87.79
5296;BME280;2670;42.720;23.336;2023-02-21T06:19:28;-22563.75;;;4.19;87.52
5296;BME280;2670;42.720;23.336;2023-02-21T06:21:54;-22566.44;;;4.29;87.37
5296;BME280;2670;42.720;23.336;2023-02-21T06:24:21;-22564.50;;;4.22;87.73
5296;BME280;2670;42.720;23.336;2023-02-21T06:26:48;-22569.88;;;4.40;87.71
5296;BME280;2670;42.720;23.336;2023-02-21T06:29:15;-22576.13;;;4.62;85.90
5296;BME280;2670;42.720;23.336;2023-02-21T06:31:43;-22581.50;;;4.80;84.46
5296;BME280;2670;42.720;23.336;2023-02-21T06:34:09;-22584.03;;;4.89;83.06
5296;BME280;2670;42.720;23.336;2023-02-21T06:36:36;-22587.31;;;5.00;82.19
5296;BME280;2670;42.720;23.336;2023-02-21T06:39:03;-22591.78;;;5.15;80.95
5296;BME280;2670;42.720;23.336;2023-02-21T06:41:31;-22591.19;;;5.13;80.70
5296;BME280;2670;42.720;23.336;2023-02-21T06:43:58;-22591.94;;;5.16;81.25
5296;BME280;2670;42.720;23.336;2023-02-21T06:46:27;-22593.56;;;5.21;80.97
5296;BME280;2670;42.720;23.336;2023-02-21T06:48:56;-22595.50;;;5.28;80.46
5296;BME280;2670;42.720;23.336;2023-02-21T06:51:23;-22597.00;;;5.33;79.99
5296;BME280;2670;42.720;23.336;2023-02-21T06:53:55;-22600.28;;;5.44;79.54
5296;BME280;2670;42.720;23.336;2023-02-21T06:56:22;-22607.59;;;5.69;77.63
5296;BME280;2670;42.720;23.336;2023-02-21T06:58:49;-22606.97;;;5.67;78.37
5296;BME280;2670;42.720;23.336;2023-02-21T07:01:15;-22608.03;;;5.71;78.60
5296;BME280;2670;42.720;23.336;2023-02-21T07:03:45;-22612.34;;;5.86;77.48
5296;BME280;2670;42.720;23.336;2023-02-21T07:06:22;-22612.94;;;5.88;76.74
5296;BME280;2670;42.720;23.336;2023-02-21T07:08:49;-22614.72;;;5.94;76.28
5296;BME280;2670;42.720;23.336;2023-02-21T07:11:17;-22617.13;;;6.02;76.25
5296;BME280;2670;42.720;23.336;2023-02-21T07:13:46;-22619.66;;;6.11;76.60
5296;BME280;2670;42.720;23.336;2023-02-21T07:16:14;-22622.63;;;6.21;75.46
5296;BME280;2670;42.720;23.336;2023-02-21T07:18:42;-22622.91;;;6.22;75.53
5296;BME280;2670;42.720;23.336;2023-02-21T07:21:09;-22625.16;;;6.30;74.03
5296;BME280;2670;42.720;23.336;2023-02-21T07:23:37;-22629.16;;;6.43;74.35
5296;BME280;2670;42.720;23.336;2023-02-21T07:26:07;-22632.88;;;6.56;72.81
5296;BME280;2670;42.720;23.336;2023-02-21T07:28:34;-22635.13;;;6.64;71.72
5296;BME280;2670;42.720;23.336;2023-02-21T07:31:01;-22638.09;;;6.74;72.01
5296;BME280;2670;42.720;23.336;2023-02-21T07:33:28;-22639.13;;;6.78;72.60
5296;BME280;2670;42.720;23.336;2023-02-21T07:35:55;-22640.03;;;6.81;71.93
5296;BME280;2670;42.720;23.336;2023-02-21T07:38:23;-22639.59;;;6.79;72.89
5296;BME280;2670;42.720;23.336;2023-02-21T07:40:53;-22641.81;;;6.87;71.77
5296;BME280;2670;42.720;23.336;2023-02-21T07:43:20;-22640.94;;;6.84;73.08
5296;BME280;2670;42.720;23.336;2023-02-21T07:45:46;-22642.13;;;6.88;72.43
5296;BME280;2670;42.720;23.336;2023-02-21T07:48:13;-22642.72;;;6.90;72.44
5296;BME280;2670;42.720;23.336;2023-02-21T07:50:40;-22643.59;;;6.93;72.06
5296;BME280;2670;42.720;23.336;2023-02-21T07:53:08;-22646.28;;;7.02;72.60
5296;BME280;2670;42.720;23.336;2023-02-21T07:55:35;-22646.13;;;7.02;71.80
5296;BME280;2670;42.720;23.336;2023-02-21T07:58:03;-22646.56;;;7.03;71.49
5296;BME280;2670;42.720;23.336;2023-02-21T08:00:30;-22653.13;;;7.26;70.24
5296;BME280;2670;42.720;23.336;2023-02-21T08:02:57;-22653.88;;;7.28;69.06
5296;BME280;2670;42.720;23.336;2023-02-21T08:05:24;-22653.88;;;7.28;68.75
5296;BME280;2670;42.720;23.336;2023-02-21T08:07:51;-22651.19;;;7.19;70.28
5296;BME280;2670;42.720;23.336;2023-02-21T08:10:20;-22651.94;;;7.21;70.50
5296;BME280;2670;42.720;23.336;2023-02-21T08:12:47;-22654.59;;;7.31;69.69
5296;BME280;2670;42.720;23.336;2023-02-21T08:15:15;-22655.06;;;7.32;70.49
5296;BME280;2670;42.720;23.336;2023-02-21T08:17:41;-22651.47;;;7.20;71.82
5296;BME280;2670;42.720;23.336;2023-02-21T08:20:09;-22652.69;;;7.24;71.81
5296;BME280;2670;42.720;23.336;2023-02-21T08:22:36;-22661.28;;;7.54;69.59
5296;BME280;2670;42.720;23.336;2023-02-21T08:25:03;-22658.91;;;7.45;70.41
5296;BME280;2670;42.720;23.336;2023-02-21T08:27:30;-22658.47;;;7.44;69.95
5296;BME280;2670;42.720;23.336;2023-02-21T08:29:56;-22663.66;;;7.62;69.66
5296;BME280;2670;42.720;23.336;2023-02-21T08:32:24;-22661.75;;;7.55;69.13
5296;BME280;2670;42.720;23.336;2023-02-21T08:34:51;-22669.75;;;7.83;67.94
5296;BME280;2670;42.720;23.336;2023-02-21T08:37:18;-22666.34;;;7.71;68.73
5296;BME280;2670;42.720;23.336;2023-02-21T08:39:45;-22670.34;;;7.85;67.99
5296;BME280;2670;42.720;23.336;2023-02-21T08:42:12;-22674.38;;;7.98;67.27
5296;BME280;2670;42.720;23.336;2023-02-21T08:44:41;-22672.59;;;7.92;67.74
5296;BME280;2670;42.720;23.336;2023-02-21T08:47:08;-22673.91;;;7.97;67.17
5296;BME280;2670;42.720;23.336;2023-02-21T08:49:36;-22673.19;;;7.94;67.05
5296;BME280;2670;42.720;23.336;2023-02-21T08:52:04;-22672.72;;;7.93;67.80
5296;BME280;2670;42.720;23.336;2023-02-21T08:54:31;-22682.69;;;8.27;65.26
5296;BME280;2670;42.720;23.336;2023-02-21T08:56:57;-22682.09;;;8.25;66.33
5296;BME280;2670;42.720;23.336;2023-02-21T08:59:24;-22688.03;;;8.45;64.93
5296;BME280;2670;42.720;23.336;2023-02-21T09:01:53;-22691.47;;;8.57;64.60
5296;BME280;2670;42.720;23.336;2023-02-21T09:04:19;-22691.47;;;8.57;64.33
5296;BME280;2670;42.720;23.336;2023-02-21T09:06:49;-22692.34;;;8.60;64.57
5296;BME280;2670;42.720;23.336;2023-02-21T09:09:16;-22690.72;;;8.55;64.32
5296;BME280;2670;42.720;23.336;2023-02-21T09:11:43;-22695.47;;;8.71;63.70
5296;BME280;2670;42.720;23.336;2023-02-21T09:14:12;-22696.06;;;8.73;63.34
5296;BME280;2670;42.720;23.336;2023-02-21T09:16:39;-22698.88;;;8.83;63.82
5296;BME280;2670;42.720;23.336;2023-02-21T09:19:07;-22701.25;;;8.91;63.40
5296;BME280;2670;42.720;23.336;2023-02-21T09:21:35;-22704.66;;;9.03;62.27
5296;BME280;2670;42.720;23.336;2023-02-21T09:24:11;-22708.22;;;9.15;59.86
5296;BME280;2670;42.720;23.336;2023-02-21T09:26:38;-22708.81;;;9.17;60.98
5296;BME280;2670;42.720;23.336;2023-02-21T09:29:04;-22711.03;;;9.25;60.82
5296;BME280;2670;42.720;23.336;2023-02-21T09:31:31;-22719.94;;;9.55;59.06
5296;BME280;2670;42.720;23.336;2023-02-21T09:33:58;-22724.69;;;9.71;59.17
5296;BME280;2670;42.720;23.336;2023-02-21T09:36:24;-22732.41;;;9.98;57.58
5296;BME280;2670;42.720;23.336;2023-02-21T09:38:51;-22729.28;;;9.87;58.74
5296;BME280;2670;42.720;23.336;2023-02-21T09:41:19;-22739.06;;;10.21;57.15
5296;BME280;2670;42.720;23.336;2023-02-21T09:43:47;-22737.13;;;10.14;58.40
5296;BME280;2670;42.720;23.336;2023-02-21T09:46:19;-22738.78;;;10.20;57.84
5296;BME280;2670;42.720;23.336;2023-02-21T09:48:47;-22743.81;;;10.37;57.13
5296;BME280;2670;42.720;23.336;2023-02-21T09:51:15;-22742.78;;;10.34;56.37
5296;BME280;2670;42.720;23.336;2023-02-21T09:53:43;-22752.41;;;10.67;55.22
5296;BME280;2670;42.720;23.336;2023-02-21T09:56:17;-22757.59;;;10.85;54.94
5296;BME280;2670;42.720;23.336;2023-02-21T09:58:48;-22764.84;;;11.10;53.95
5296;BME280;2670;42.720;23.336;2023-02-21T10:01:21;-22769.88;;;11.27;54.05
5296;BME280;2670;42.720;23.336;2023-02-21T10:03:56;-22770.63;;;11.30;53.79
5296;BME280;2670;42.720;23.336;2023-02-21T10:06:33;-22769.28;;;11.25;52.33
5296;BME280;2670;42.720;23.336;2023-02-21T10:09:07;-22775.19;;;11.45;52.11
5296;BME280;2670;42.720;23.336;2023-02-21T10:11:54;-22780.53;;;11.64;51.62
5296;BME280;2670;42.720;23.336;2023-02-21T10:14:33;-22790.44;;;11.98;50.42
5296;BME280;2670;42.720;23.336;2023-02-21T10:17:11;-22798.88;;;12.27;50.02
5296;BME280;2670;42.720;23.336;2023-02-21T10:19:43;-22802.13;;;12.38;49.56
5296;BME280;2670;42.720;23.336;2023-02-21T10:22:13;-22815.72;;;12.85;49.28
5296;BME280;2670;42.720;23.336;2023-02-21T10:24:41;-22820.75;;;13.03;47.47
5296;BME280;2670;42.720;23.336;2023-02-21T10:27:13;-22836.09;;;13.56;40.78
5296;BME280;2670;42.720;23.336;2023-02-21T10:29:47;-22843.34;;;13.81;39.80
5296;BME280;2670;42.720;23.336;2023-02-21T10:32:16;-22848.78;;;14.00;39.32
5296;BME280;2670;42.720;23.336;2023-02-21T10:34:44;-22858.09;;;14.32;38.57
5296;BME280;2670;42.720;23.336;2023-02-21T10:37:27;-22861.91;;;14.45;38.30
5296;BME280;2670;42.720;23.336;2023-02-21T10:40:00;-22872.69;;;14.82;37.35
5296;BME280;2670;42.720;23.336;2023-02-21T10:42:34;-22873.28;;;14.84;37.14
5296;BME280;2670;42.720;23.336;2023-02-21T10:45:06;-22875.63;;;14.92;36.95
5296;BME280;2670;42.720;23.336;2023-02-21T10:47:44;-22880.19;;;15.08;36.80
5296;BME280;2670;42.720;23.336;2023-02-21T10:50:13;-22882.84;;;15.17;37.02
5296;BME280;2670;42.720;23.336;2023-02-21T10:52:47;-22881.66;;;15.13;35.95
5296;BME280;2670;42.720;23.336;2023-02-21T10:55:16;-22880.78;;;15.10;36.23
5296;BME280;2670;42.720;23.336;2023-02-21T10:57:44;-22881.53;;;15.13;37.07
5296;BME280;2670;42.720;23.336;2023-02-21T11:00:23;-22891.84;;;15.49;36.91
5296;BME280;2670;42.720;23.336;2023-02-21T11:02:54;-22890.81;;;15.45;36.70
5296;BME280;2670;42.720;23.336;2023-02-21T11:05:22;-22891.97;;;15.49;36.55
5296;BME280;2670;42.720;23.336;2023-02-21T11:07:58;-22897.59;;;15.68;36.42
5296;BME280;2670;42.720;23.336;2023-02-21T11:10:29;-22899.63;;;15.76;36.45
5296;BME280;2670;42.720;23.336;2023-02-21T11:13:13;-22899.34;;;15.75;36.52
5296;BME280;2670;42.720;23.336;2023-02-21T11:15:42;-22894.47;;;15.58;36.02
5296;BME280;2670;42.720;23.336;2023-02-21T11:18:15;-22900.97;;;15.80;36.48
5296;BME280;2670;42.720;23.336;2023-02-21T11:20:43;-22902.72;;;15.86;35.81
5296;BME280;2670;42.720;23.336;2023-02-21T11:23:33;-22901.41;;;15.82;36.10
5296;BME280;2670;42.720;23.336;2023-02-21T11:26:06;-22906.41;;;15.99;35.87
5296;BME280;2670;42.720;23.336;2023-02-21T11:28:36;-22906.69;;;16.00;35.12
5296;BME280;2670;42.720;23.336;2023-02-21T11:31:12;-22910.09;;;16.12;34.06
5296;BME280;2670;42.720;23.336;2023-02-21T11:33:47;-22909.78;;;16.11;35.10
5296;BME280;2670;42.720;23.336;2023-02-21T11:36:17;-22917.16;;;16.36;34.94
5296;BME280;2670;42.720;23.336;2023-02-21T11:38:59;-22913.31;;;16.23;34.18
5296;BME280;2670;42.720;23.336;2023-02-21T11:41:28;-22914.06;;;16.26;34.35
5296;BME280;2670;42.720;23.336;2023-02-21T11:43:56;-22916.41;;;16.34;33.97
5296;BME280;2670;42.720;23.336;2023-02-21T11:46:38;-22915.97;;;16.32;34.19
5296;BME280;2670;42.720;23.336;2023-02-21T11:49:13;-22915.09;;;16.29;34.15
5296;BME280;2670;42.720;23.336;2023-02-21T11:51:45;-22923.75;;;16.59;33.71
5296;BME280;2670;42.720;23.336;2023-02-21T11:54:12;-22925.97;;;16.67;33.37
5296;BME280;2670;42.720;23.336;2023-02-21T11:56:48;-22925.53;;;16.65;34.09
5296;BME280;2670;42.720;23.336;2023-02-21T11:59:28;-22926.28;;;16.68;34.18
5296;BME280;2670;42.720;23.336;2023-02-21T12:02:13;-22927.16;;;16.71;34.19
5296;BME280;2670;42.720;23.336;2023-02-21T12:04:58;-22925.09;;;16.64;34.78
5296;BME280;2670;42.720;23.336;2023-02-21T12:07:35;-22923.31;;;16.58;34.37
5296;BME280;2670;42.720;23.336;2023-02-21T12:10:23;-22926.72;;;16.69;34.34
5296;BME280;2670;42.720;23.336;2023-02-21T12:12:58;-22923.63;;;16.59;34.61
5296;BME280;2670;42.720;23.336;2023-02-21T12:15:33;-22924.94;;;16.63;35.17
5296;BME280;2670;42.720;23.336;2023-02-21T12:18:25;-22930.09;;;16.81;34.24
5296;BME280;2670;42.720;23.336;2023-02-21T12:21:06;-22929.06;;;16.78;34.13
5296;BME280;2670;42.720;23.336;2023-02-21T12:23:44;-22924.06;;;16.60;34.84
5296;BME280;2670;42.720;23.336;2023-02-21T12:26:29;-22929.34;;;16.79;34.64
5296;BME280;2670;42.720;23.336;2023-02-21T12:29:08;-22931.41;;;16.86;34.14
5296;BME280;2670;42.720;23.336;2023-02-21T12:31:47;-22932.16;;;16.88;33.83
5296;BME280;2670;42.720;23.336;2023-02-21T12:34:29;-22936.13;;;17.02;33.19
5296;BME280;2670;42.720;23.336;2023-02-21T12:37:07;-22937.44;;;17.07;33.42
5296;BME280;2670;42.720;23.336;2023-02-21T12:39:54;-22936.56;;;17.04;33.67
5296;BME280;2670;42.720;23.336;2023-02-21T12:42:31;-22938.19;;;17.09;33.51
5296;BME280;2670;42.720;23.336;2023-02-21T12:45:18;-22941.69;;;17.22;33.35
5296;BME280;2670;42.720;23.336;2023-02-21T12:47:53;-22944.66;;;17.32;33.40
5296;BME280;2670;42.720;23.336;2023-02-21T12:50:25;-22944.34;;;17.31;33.18
5296;BME280;2670;42.720;23.336;2023-02-21T12:52:57;-22944.94;;;17.33;33.54
5296;BME280;2670;42.720;23.336;2023-02-21T12:55:31;-22946.56;;;17.38;33.16
5296;BME280;2670;42.720;23.336;2023-02-21T12:58:03;-22947.44;;;17.41;33.08
5296;BME280;2670;42.720;23.336;2023-02-21T13:00:39;-22949.34;;;17.48;33.29
5296;BME280;2670;42.720;23.336;2023-02-21T13:03:20;-22950.81;;;17.53;33.44
5296;BME280;2670;42.720;23.336;2023-02-21T13:05:53;-22949.63;;;17.49;32.65
5296;BME280;2670;42.720;23.336;2023-02-21T13:08:35;-22955.50;;;17.70;32.45
5296;BME280;2670;42.720;23.336;2023-02-21T13:11:11;-22953.31;;;17.62;33.17
5296;BME280;2670;42.720;23.336;2023-02-21T13:13:40;-22948.91;;;17.47;33.48
5296;BME280;2670;42.720;23.336;2023-02-21T13:16:07;-22948.31;;;17.45;33.55
5296;BME280;2670;42.720;23.336;2023-02-21T13:18:40;-22955.66;;;17.70;33.39
5296;BME280;2670;42.720;23.336;2023-02-21T13:21:19;-22952.44;;;17.59;33.19
5296;BME280;2670;42.720;23.336;2023-02-21T13:23:52;-22953.44;;;17.62;33.79
5296;BME280;2670;42.720;23.336;2023-02-21T13:26:38;-22954.34;;;17.65;33.14
5296;BME280;2670;42.720;23.336;2023-02-21T13:29:13;-22953.00;;;17.61;33.68
5296;BME280;2670;42.720;23.336;2023-02-21T13:31:43;-22958.00;;;17.78;33.48
5296;BME280;2670;42.720;23.336;2023-02-21T13:34:11;-22955.50;;;17.70;33.19
5296;BME280;2670;42.720;23.336;2023-02-21T13:36:43;-22959.47;;;17.83;32.57
5296;BME280;2670;42.720;23.336;2023-02-21T13:39:12;-22964.03;;;17.99;31.53
5296;BME280;2670;42.720;23.336;2023-02-21T13:41:42;-22960.22;;;17.86;32.10
5296;BME280;2670;42.720;23.336;2023-02-21T13:44:14;-22964.91;;;18.02;31.58
5296;BME280;2670;42.720;23.336;2023-02-21T13:47:06;-22966.66;;;18.08;31.30
5296;BME280;2670;42.720;23.336;2023-02-21T13:49:43;-22966.22;;;18.07;32.23
5296;BME280;2670;42.720;23.336;2023-02-21T13:52:36;-22965.50;;;18.04;32.34